ENT5441 EPKT-LATI
Flight info
| Callsign | ENT5441 |
|---|---|
| Flight time | 1h 25m |
| Altitude | 37000 |
| Route | TUSIN DCT DEMOP DCT PARAK DCT VAL DCT AKIKA DCT INLOT |
| Aircraft | A320/M-SDE3FGHIRWY/LB1 |
Departure
| Time | 2026-04-29 11:17 |
|---|---|
| Airport | Katowice Wojciech Korfanty International Airport (EPKT) |
Arrival
| Time | 2026-04-29 12:42 |
|---|---|
| Airport | Tirana International Airport Mother Teresa (LATI) |
| Time | Latitude | Longitude | Altitude | Speed | Heading |
|---|---|---|---|---|---|
| 2026-04-29 10:54 | 50.47153 | 19.08326 | 986 ft | 0 kts | 180° |
| 2026-04-29 10:59 | 50.47155 | 19.08326 | 986 ft | 1 kts | 180° |
| 2026-04-29 10:59 | 50.47169 | 19.08326 | 986 ft | 2 kts | 180° |
| 2026-04-29 11:00 | 50.47184 | 19.08326 | 986 ft | 2 kts | 180° |
| 2026-04-29 11:00 | 50.47199 | 19.08326 | 986 ft | 2 kts | 180° |
| 2026-04-29 11:00 | 50.47214 | 19.08326 | 985 ft | 2 kts | 180° |
| 2026-04-29 11:00 | 50.47228 | 19.08328 | 985 ft | 2 kts | 215° |
| 2026-04-29 11:01 | 50.47237 | 19.08347 | 985 ft | 1 kts | 261° |
| 2026-04-29 11:01 | 50.47237 | 19.08357 | 985 ft | 1 kts | 275° |
| 2026-04-29 11:01 | 50.47237 | 19.08364 | 985 ft | 0 kts | 270° |
| 2026-04-29 11:10 | 50.47237 | 19.08346 | 985 ft | 3 kts | 270° |
| 2026-04-29 11:10 | 50.47236 | 19.08320 | 985 ft | 0 kts | 263° |
| 2026-04-29 11:10 | 50.47235 | 19.08302 | 985 ft | 4 kts | 267° |
| 2026-04-29 11:11 | 50.47234 | 19.08201 | 984 ft | 15 kts | 269° |
| 2026-04-29 11:11 | 50.47234 | 19.08010 | 983 ft | 17 kts | 271° |
| 2026-04-29 11:11 | 50.47236 | 19.07813 | 983 ft | 18 kts | 271° |
| 2026-04-29 11:11 | 50.47240 | 19.07620 | 983 ft | 18 kts | 273° |
| 2026-04-29 11:12 | 50.47234 | 19.07421 | 982 ft | 18 kts | 269° |
| 2026-04-29 11:12 | 50.47235 | 19.07217 | 982 ft | 18 kts | 271° |
| 2026-04-29 11:12 | 50.47239 | 19.07004 | 978 ft | 20 kts | 273° |
| 2026-04-29 11:12 | 50.47242 | 19.06780 | 978 ft | 20 kts | 265° |
| 2026-04-29 11:13 | 50.47259 | 19.06636 | 977 ft | 12 kts | 325° |
| 2026-04-29 11:13 | 50.47346 | 19.06621 | 976 ft | 13 kts | 358° |
| 2026-04-29 11:13 | 50.47425 | 19.06560 | 975 ft | 14 kts | 289° |
| 2026-04-29 11:13 | 50.47421 | 19.06401 | 975 ft | 14 kts | 263° |
| 2026-04-29 11:14 | 50.47413 | 19.06233 | 973 ft | 16 kts | 272° |
| 2026-04-29 11:14 | 50.47424 | 19.06047 | 971 ft | 17 kts | 278° |
| 2026-04-29 11:14 | 50.47487 | 19.05955 | 970 ft | 7 kts | 15° |
| 2026-04-29 11:14 | 50.47499 | 19.05958 | 970 ft | 0 kts | 7° |
| 2026-04-29 11:15 | 50.47501 | 19.05958 | 970 ft | 1 kts | 2° |
| 2026-04-29 11:15 | 50.47519 | 19.05955 | 969 ft | 4 kts | 352° |
| 2026-04-29 11:15 | 50.47562 | 19.05948 | 969 ft | 7 kts | 0° |
| 2026-04-29 11:15 | 50.47610 | 19.05998 | 968 ft | 9 kts | 78° |
| 2026-04-29 11:16 | 50.47609 | 19.06101 | 969 ft | 9 kts | 87° |
| 2026-04-29 11:16 | 50.47612 | 19.06356 | 971 ft | 53 kts | 90° |
| 2026-04-29 11:16 | 50.47611 | 19.07284 | 977 ft | 115 kts | 91° |
| 2026-04-29 11:16 | 50.47604 | 19.08828 | 988 ft | 163 kts | 86° |
| 2026-04-29 11:17 | 50.47572 | 19.10626 | 1483 ft | 165 kts | 86° |
| 2026-04-29 11:17 | 50.47534 | 19.12404 | 2091 ft | 165 kts | 86° |
| 2026-04-29 11:17 | 50.47525 | 19.14215 | 2643 ft | 167 kts | 84° |
| 2026-04-29 11:17 | 50.47543 | 19.16038 | 3111 ft | 176 kts | 85° |
| 2026-04-29 11:18 | 50.47552 | 19.18049 | 3439 ft | 196 kts | 88° |
| 2026-04-29 11:18 | 50.47157 | 19.20228 | 3800 ft | 224 kts | 120° |
| 2026-04-29 11:18 | 50.45959 | 19.21907 | 4154 ft | 248 kts | 153° |
| 2026-04-29 11:18 | 50.44189 | 19.22374 | 4470 ft | 268 kts | 180° |
| 2026-04-29 11:19 | 50.42293 | 19.22262 | 4918 ft | 279 kts | 181° |
| 2026-04-29 11:19 | 50.40345 | 19.22172 | 5598 ft | 280 kts | 180° |
| 2026-04-29 11:19 | 50.38418 | 19.22123 | 6283 ft | 282 kts | 180° |
| 2026-04-29 11:19 | 50.36438 | 19.22097 | 6949 ft | 285 kts | 179° |
| 2026-04-29 11:20 | 50.34467 | 19.22085 | 7636 ft | 287 kts | 180° |
| 2026-04-29 11:20 | 50.32491 | 19.21986 | 8288 ft | 291 kts | 190° |
| 2026-04-29 11:20 | 50.30648 | 19.20749 | 8917 ft | 291 kts | 223° |
| 2026-04-29 11:20 | 50.29246 | 19.17338 | 9809 ft | 283 kts | 261° |
| 2026-04-29 11:21 | 50.29114 | 19.15306 | 10277 ft | 278 kts | 275° |
| 2026-04-29 11:21 | 50.29179 | 19.12266 | 10855 ft | 285 kts | 277° |
| 2026-04-29 11:21 | 50.29247 | 19.09112 | 11181 ft | 302 kts | 276° |
| 2026-04-29 11:21 | 50.29285 | 19.05775 | 11704 ft | 310 kts | 275° |
| 2026-04-29 11:22 | 50.29299 | 19.02431 | 12427 ft | 311 kts | 275° |
| 2026-04-29 11:22 | 50.29302 | 18.99047 | 13159 ft | 311 kts | 274° |
| 2026-04-29 11:22 | 50.28908 | 18.95706 | 13777 ft | 325 kts | 252° |
| 2026-04-29 11:22 | 50.27602 | 18.92722 | 14391 ft | 341 kts | 229° |
| 2026-04-29 11:23 | 50.25601 | 18.90676 | 14997 ft | 353 kts | 211° |
| 2026-04-29 11:23 | 50.23372 | 18.89040 | 15577 ft | 357 kts | 211° |
| 2026-04-29 11:23 | 50.21111 | 18.87398 | 16132 ft | 359 kts | 212° |
| 2026-04-29 11:23 | 50.18874 | 18.85735 | 16711 ft | 360 kts | 212° |
| 2026-04-29 11:24 | 50.16615 | 18.84026 | 17280 ft | 362 kts | 213° |
| 2026-04-29 11:24 | 50.14362 | 18.82308 | 17815 ft | 364 kts | 213° |
| 2026-04-29 11:24 | 50.12061 | 18.80554 | 18337 ft | 367 kts | 213° |
| 2026-04-29 11:24 | 50.09767 | 18.78803 | 18794 ft | 369 kts | 213° |
| 2026-04-29 11:25 | 50.07491 | 18.76952 | 19215 ft | 370 kts | 216° |
| 2026-04-29 11:25 | 50.05239 | 18.75026 | 19703 ft | 372 kts | 216° |
| 2026-04-29 11:25 | 50.02977 | 18.73087 | 20122 ft | 374 kts | 217° |
| 2026-04-29 11:25 | 50.00681 | 18.71119 | 20572 ft | 376 kts | 216° |
| 2026-04-29 11:26 | 49.96105 | 18.67144 | 21445 ft | 379 kts | 217° |
| 2026-04-29 11:26 | 49.93808 | 18.65120 | 21841 ft | 382 kts | 217° |
| 2026-04-29 11:26 | 49.91477 | 18.63079 | 22231 ft | 384 kts | 217° |
| 2026-04-29 11:27 | 49.89141 | 18.61062 | 22614 ft | 387 kts | 217° |
| 2026-04-29 11:27 | 49.86683 | 18.59320 | 22925 ft | 401 kts | 201° |
| 2026-04-29 11:27 | 49.83834 | 18.58977 | 23225 ft | 419 kts | 177° |
| 2026-04-29 11:27 | 49.81031 | 18.60349 | 23601 ft | 429 kts | 154° |
| 2026-04-29 11:28 | 49.78487 | 18.62692 | 23995 ft | 430 kts | 150° |
| 2026-04-29 11:28 | 49.75945 | 18.65149 | 24279 ft | 434 kts | 150° |
| 2026-04-29 11:28 | 49.73396 | 18.67594 | 24567 ft | 436 kts | 150° |
| 2026-04-29 11:28 | 49.70777 | 18.70067 | 24900 ft | 438 kts | 151° |
| 2026-04-29 11:29 | 49.68177 | 18.72488 | 25185 ft | 440 kts | 152° |
| 2026-04-29 11:29 | 49.65532 | 18.74928 | 25488 ft | 442 kts | 152° |
| 2026-04-29 11:29 | 49.62906 | 18.77340 | 25763 ft | 444 kts | 152° |
| 2026-04-29 11:29 | 49.60218 | 18.79796 | 26034 ft | 446 kts | 152° |
| 2026-04-29 11:30 | 49.57544 | 18.82234 | 26308 ft | 448 kts | 152° |
| 2026-04-29 11:30 | 49.54852 | 18.84685 | 26582 ft | 451 kts | 152° |
| 2026-04-29 11:30 | 49.52156 | 18.87134 | 26838 ft | 453 kts | 152° |
| 2026-04-29 11:30 | 49.49410 | 18.89629 | 27103 ft | 455 kts | 153° |
| 2026-04-29 11:31 | 49.46701 | 18.92085 | 27363 ft | 456 kts | 153° |
| 2026-04-29 11:31 | 49.43968 | 18.94560 | 27619 ft | 459 kts | 152° |
| 2026-04-29 11:31 | 49.41243 | 18.97024 | 27871 ft | 460 kts | 153° |
| 2026-04-29 11:31 | 49.38469 | 18.99530 | 28118 ft | 462 kts | 153° |
| 2026-04-29 11:32 | 49.35706 | 19.02024 | 28353 ft | 464 kts | 153° |
| 2026-04-29 11:32 | 49.32910 | 19.04544 | 28605 ft | 466 kts | 153° |
| 2026-04-29 11:32 | 49.30118 | 19.07055 | 28839 ft | 468 kts | 153° |
| 2026-04-29 11:32 | 49.27313 | 19.09573 | 29048 ft | 470 kts | 153° |
| 2026-04-29 11:33 | 49.24479 | 19.12118 | 29285 ft | 471 kts | 154° |
| 2026-04-29 11:33 | 49.21684 | 19.14621 | 29493 ft | 474 kts | 153° |
| 2026-04-29 11:33 | 49.18824 | 19.17181 | 29699 ft | 476 kts | 153° |
| 2026-04-29 11:33 | 49.15973 | 19.19729 | 29917 ft | 477 kts | 154° |
| 2026-04-29 11:34 | 49.13059 | 19.22328 | 30122 ft | 479 kts | 154° |
| 2026-04-29 11:34 | 49.10212 | 19.24864 | 30314 ft | 481 kts | 154° |
| 2026-04-29 11:34 | 49.07307 | 19.27451 | 30505 ft | 483 kts | 154° |
| 2026-04-29 11:34 | 49.04391 | 19.30042 | 30671 ft | 486 kts | 154° |
| 2026-04-29 11:35 | 49.01474 | 19.32630 | 30869 ft | 488 kts | 154° |
| 2026-04-29 11:35 | 48.98537 | 19.35236 | 31087 ft | 488 kts | 154° |
| 2026-04-29 11:35 | 48.95593 | 19.37838 | 31268 ft | 490 kts | 154° |
| 2026-04-29 11:35 | 48.92630 | 19.40454 | 31452 ft | 491 kts | 154° |
| 2026-04-29 11:36 | 48.89681 | 19.43055 | 31704 ft | 491 kts | 154° |
| 2026-04-29 11:36 | 48.86778 | 19.45612 | 31929 ft | 490 kts | 154° |
| 2026-04-29 11:36 | 48.83807 | 19.48227 | 32139 ft | 490 kts | 154° |
| 2026-04-29 11:36 | 48.80845 | 19.50836 | 32344 ft | 490 kts | 154° |
| 2026-04-29 11:37 | 48.77898 | 19.53425 | 32597 ft | 489 kts | 154° |
| 2026-04-29 11:37 | 48.74968 | 19.55989 | 32802 ft | 489 kts | 154° |
| 2026-04-29 11:37 | 48.72008 | 19.58578 | 32972 ft | 489 kts | 153° |
| 2026-04-29 11:37 | 48.69098 | 19.61123 | 33151 ft | 489 kts | 153° |
| 2026-04-29 11:38 | 48.66148 | 19.63700 | 33350 ft | 488 kts | 153° |
| 2026-04-29 11:38 | 48.63224 | 19.66253 | 33555 ft | 487 kts | 154° |
| 2026-04-29 11:38 | 48.60323 | 19.68782 | 33741 ft | 486 kts | 155° |
| 2026-04-29 11:38 | 48.57393 | 19.71330 | 33908 ft | 485 kts | 154° |
| 2026-04-29 11:39 | 48.54467 | 19.73867 | 34028 ft | 486 kts | 155° |
| 2026-04-29 11:39 | 48.51579 | 19.76371 | 34171 ft | 486 kts | 154° |
| 2026-04-29 11:39 | 48.48621 | 19.78932 | 34334 ft | 486 kts | 154° |
| 2026-04-29 11:39 | 48.45696 | 19.81460 | 34506 ft | 485 kts | 154° |
| 2026-04-29 11:40 | 48.42791 | 19.83967 | 34696 ft | 485 kts | 154° |
| 2026-04-29 11:40 | 48.39858 | 19.86499 | 34865 ft | 484 kts | 154° |
| 2026-04-29 11:40 | 48.36961 | 19.88994 | 35058 ft | 482 kts | 154° |
| 2026-04-29 11:40 | 48.34070 | 19.91481 | 35238 ft | 481 kts | 154° |
| 2026-04-29 11:41 | 48.31184 | 19.93961 | 35411 ft | 480 kts | 154° |
| 2026-04-29 11:41 | 48.28297 | 19.96438 | 35548 ft | 480 kts | 154° |
| 2026-04-29 11:41 | 48.25398 | 19.98922 | 35686 ft | 481 kts | 154° |
| 2026-04-29 11:41 | 48.22411 | 20.01243 | 35791 ft | 478 kts | 160° |
| 2026-04-29 11:42 | 48.19366 | 20.03097 | 35928 ft | 475 kts | 166° |
| 2026-04-29 11:42 | 48.16186 | 20.04513 | 36040 ft | 471 kts | 172° |
| 2026-04-29 11:42 | 48.09778 | 20.05924 | 36233 ft | 464 kts | 184° |
| 2026-04-29 11:43 | 48.06553 | 20.06031 | 36340 ft | 462 kts | 186° |
| 2026-04-29 11:43 | 48.03347 | 20.06061 | 36467 ft | 462 kts | 186° |
| 2026-04-29 11:43 | 47.96907 | 20.06119 | 36682 ft | 463 kts | 186° |
| 2026-04-29 11:44 | 47.90502 | 20.06215 | 36869 ft | 464 kts | 185° |
| 2026-04-29 11:44 | 47.84011 | 20.06332 | 37015 ft | 466 kts | 185° |
| 2026-04-29 11:45 | 47.77502 | 20.06454 | 37153 ft | 467 kts | 185° |
| 2026-04-29 11:45 | 47.71030 | 20.06580 | 37186 ft | 467 kts | 185° |
| 2026-04-29 11:46 | 47.64573 | 20.06703 | 37193 ft | 467 kts | 185° |
| 2026-04-29 11:46 | 47.58081 | 20.06826 | 37202 ft | 467 kts | 185° |
| 2026-04-29 11:47 | 47.51585 | 20.06950 | 37195 ft | 467 kts | 185° |
| 2026-04-29 11:47 | 47.45105 | 20.07072 | 37197 ft | 466 kts | 185° |
| 2026-04-29 11:48 | 47.38650 | 20.07193 | 37195 ft | 466 kts | 186° |
| 2026-04-29 11:48 | 47.32191 | 20.07313 | 37196 ft | 466 kts | 185° |
| 2026-04-29 11:49 | 47.25713 | 20.07432 | 37199 ft | 466 kts | 185° |
| 2026-04-29 11:49 | 47.19256 | 20.07556 | 37202 ft | 466 kts | 186° |
| 2026-04-29 11:50 | 47.12772 | 20.07675 | 37204 ft | 466 kts | 186° |
| 2026-04-29 11:50 | 47.06321 | 20.07795 | 37196 ft | 466 kts | 186° |
| 2026-04-29 11:51 | 46.99851 | 20.07915 | 37212 ft | 465 kts | 186° |
| 2026-04-29 11:51 | 46.93388 | 20.08035 | 37206 ft | 464 kts | 186° |
| 2026-04-29 11:52 | 46.86968 | 20.08153 | 37206 ft | 465 kts | 186° |
| 2026-04-29 11:52 | 46.80488 | 20.08271 | 37193 ft | 464 kts | 186° |
| 2026-04-29 11:53 | 46.74062 | 20.08390 | 37185 ft | 464 kts | 186° |
| 2026-04-29 11:53 | 46.67595 | 20.08506 | 37183 ft | 463 kts | 186° |
| 2026-04-29 11:54 | 46.61155 | 20.08623 | 37179 ft | 463 kts | 186° |
| 2026-04-29 11:54 | 46.54734 | 20.08741 | 37027 ft | 461 kts | 186° |
| 2026-04-29 11:55 | 46.48339 | 20.08854 | 37145 ft | 464 kts | 186° |
| 2026-04-29 11:55 | 46.41899 | 20.08969 | 37175 ft | 465 kts | 186° |
| 2026-04-29 11:56 | 46.35458 | 20.09087 | 37180 ft | 465 kts | 186° |
| 2026-04-29 11:56 | 46.28981 | 20.09205 | 37181 ft | 464 kts | 187° |
| 2026-04-29 11:57 | 46.22528 | 20.09318 | 37178 ft | 464 kts | 187° |
| 2026-04-29 11:57 | 46.16116 | 20.09330 | 37193 ft | 461 kts | 190° |
| 2026-04-29 11:58 | 46.09798 | 20.08640 | 37179 ft | 458 kts | 193° |
| 2026-04-29 11:58 | 46.03426 | 20.07850 | 37194 ft | 457 kts | 193° |
| 2026-04-29 11:59 | 45.97144 | 20.07077 | 37183 ft | 456 kts | 193° |
| 2026-04-29 11:59 | 45.90837 | 20.06302 | 37174 ft | 456 kts | 193° |
| 2026-04-29 12:00 | 45.84493 | 20.05527 | 37181 ft | 456 kts | 193° |
| 2026-04-29 12:00 | 45.78191 | 20.04759 | 37185 ft | 456 kts | 193° |
| 2026-04-29 12:01 | 45.70843 | 20.03868 | 37166 ft | 454 kts | 193° |
| 2026-04-29 12:01 | 45.65600 | 20.03232 | 37177 ft | 455 kts | 193° |
| 2026-04-29 12:02 | 45.59305 | 20.02469 | 37180 ft | 456 kts | 193° |
| 2026-04-29 12:02 | 45.53033 | 20.01715 | 37177 ft | 455 kts | 193° |
| 2026-04-29 12:03 | 45.46715 | 20.00956 | 37186 ft | 454 kts | 193° |
| 2026-04-29 12:03 | 45.40438 | 20.00202 | 37198 ft | 453 kts | 193° |
| 2026-04-29 12:04 | 45.34187 | 19.99453 | 37181 ft | 453 kts | 193° |
| 2026-04-29 12:04 | 45.27914 | 19.98702 | 37185 ft | 453 kts | 193° |
| 2026-04-29 12:05 | 45.21651 | 19.97954 | 37176 ft | 453 kts | 193° |
| 2026-04-29 12:05 | 45.15391 | 19.97211 | 37183 ft | 453 kts | 193° |
| 2026-04-29 12:06 | 45.09089 | 19.96461 | 37190 ft | 453 kts | 193° |
| 2026-04-29 12:06 | 45.02813 | 19.95716 | 37184 ft | 454 kts | 193° |
| 2026-04-29 12:07 | 44.95504 | 19.94852 | 37156 ft | 454 kts | 193° |
| 2026-04-29 12:07 | 44.90280 | 19.94236 | 37164 ft | 454 kts | 193° |
| 2026-04-29 12:08 | 44.83977 | 19.93494 | 37163 ft | 453 kts | 193° |
| 2026-04-29 12:08 | 44.77734 | 19.92763 | 37157 ft | 452 kts | 193° |
| 2026-04-29 12:09 | 44.71460 | 19.92026 | 37147 ft | 452 kts | 193° |
| 2026-04-29 12:09 | 44.65190 | 19.91293 | 37142 ft | 452 kts | 193° |
| 2026-04-29 12:10 | 44.58921 | 19.90561 | 37140 ft | 453 kts | 193° |
| 2026-04-29 12:10 | 44.52708 | 19.89837 | 37134 ft | 453 kts | 193° |
| 2026-04-29 12:11 | 44.46386 | 19.89103 | 37129 ft | 453 kts | 193° |
| 2026-04-29 12:11 | 44.40170 | 19.88381 | 37124 ft | 452 kts | 193° |
| 2026-04-29 12:12 | 44.33886 | 19.87654 | 37126 ft | 453 kts | 193° |
| 2026-04-29 12:12 | 44.27640 | 19.86798 | 37125 ft | 450 kts | 194° |
| 2026-04-29 12:13 | 44.21421 | 19.85803 | 37124 ft | 451 kts | 194° |
| 2026-04-29 12:13 | 44.15176 | 19.84815 | 37121 ft | 451 kts | 194° |
| 2026-04-29 12:14 | 44.08964 | 19.83849 | 37116 ft | 451 kts | 194° |
| 2026-04-29 12:14 | 44.02743 | 19.82887 | 37116 ft | 450 kts | 194° |
| 2026-04-29 12:15 | 43.96561 | 19.81933 | 37113 ft | 451 kts | 194° |
| 2026-04-29 12:15 | 43.90315 | 19.80971 | 37111 ft | 450 kts | 194° |
| 2026-04-29 12:16 | 43.84109 | 19.80018 | 37113 ft | 451 kts | 194° |
| 2026-04-29 12:16 | 43.77841 | 19.79058 | 37107 ft | 450 kts | 194° |
| 2026-04-29 12:17 | 43.71628 | 19.78109 | 37105 ft | 451 kts | 194° |
| 2026-04-29 12:17 | 43.65411 | 19.77160 | 37106 ft | 450 kts | 194° |
| 2026-04-29 12:18 | 43.59217 | 19.76216 | 37105 ft | 451 kts | 194° |
| 2026-04-29 12:18 | 43.52990 | 19.75271 | 37108 ft | 450 kts | 194° |
| 2026-04-29 12:19 | 43.46739 | 19.74323 | 37111 ft | 451 kts | 194° |
| 2026-04-29 12:19 | 43.40554 | 19.73387 | 37107 ft | 451 kts | 193° |
| 2026-04-29 12:20 | 43.34333 | 19.72446 | 37105 ft | 451 kts | 193° |
| 2026-04-29 12:20 | 43.28087 | 19.71505 | 37104 ft | 451 kts | 193° |
| 2026-04-29 12:21 | 43.21882 | 19.70573 | 37107 ft | 451 kts | 193° |
| 2026-04-29 12:21 | 43.15618 | 19.69632 | 37108 ft | 451 kts | 193° |
| 2026-04-29 12:22 | 43.09403 | 19.68702 | 37107 ft | 451 kts | 193° |
| 2026-04-29 12:22 | 43.03188 | 19.67772 | 37104 ft | 452 kts | 193° |
| 2026-04-29 12:23 | 42.96960 | 19.66844 | 37091 ft | 451 kts | 193° |
| 2026-04-29 12:23 | 42.93823 | 19.66376 | 36795 ft | 451 kts | 193° |
| 2026-04-29 12:23 | 42.90753 | 19.65921 | 36503 ft | 448 kts | 193° |
| 2026-04-29 12:24 | 42.87669 | 19.65464 | 36186 ft | 444 kts | 193° |
| 2026-04-29 12:24 | 42.84598 | 19.65009 | 35712 ft | 443 kts | 193° |
| 2026-04-29 12:24 | 42.81531 | 19.64553 | 35156 ft | 443 kts | 193° |
| 2026-04-29 12:24 | 42.78493 | 19.64102 | 34537 ft | 444 kts | 193° |
| 2026-04-29 12:25 | 42.75435 | 19.63645 | 33810 ft | 445 kts | 193° |
| 2026-04-29 12:25 | 42.72373 | 19.63190 | 33115 ft | 445 kts | 192° |
| 2026-04-29 12:25 | 42.66230 | 19.62281 | 31708 ft | 445 kts | 192° |
| 2026-04-29 12:26 | 42.63155 | 19.61827 | 31108 ft | 442 kts | 192° |
| 2026-04-29 12:26 | 42.60107 | 19.61383 | 30666 ft | 436 kts | 192° |
| 2026-04-29 12:26 | 42.57131 | 19.60949 | 30208 ft | 431 kts | 191° |
| 2026-04-29 12:26 | 42.54175 | 19.60485 | 29753 ft | 425 kts | 193° |
| 2026-04-29 12:27 | 42.51268 | 19.59827 | 29297 ft | 418 kts | 197° |
| 2026-04-29 12:27 | 42.48468 | 19.59061 | 28863 ft | 413 kts | 197° |
| 2026-04-29 12:27 | 42.45660 | 19.58290 | 28414 ft | 408 kts | 197° |
| 2026-04-29 12:27 | 42.42891 | 19.57529 | 27966 ft | 404 kts | 197° |
| 2026-04-29 12:28 | 42.40150 | 19.56778 | 27463 ft | 402 kts | 197° |
| 2026-04-29 12:28 | 42.37395 | 19.56021 | 26573 ft | 409 kts | 197° |
| 2026-04-29 12:28 | 42.34654 | 19.55266 | 25602 ft | 417 kts | 196° |
| 2026-04-29 12:28 | 42.31763 | 19.54474 | 24822 ft | 419 kts | 196° |
| 2026-04-29 12:29 | 42.28907 | 19.53699 | 24226 ft | 416 kts | 196° |
| 2026-04-29 12:29 | 42.26091 | 19.52937 | 23685 ft | 412 kts | 196° |
| 2026-04-29 12:29 | 42.23330 | 19.52188 | 23133 ft | 408 kts | 196° |
| 2026-04-29 12:29 | 42.20554 | 19.51433 | 22573 ft | 405 kts | 196° |
| 2026-04-29 12:30 | 42.17807 | 19.50686 | 22021 ft | 402 kts | 196° |
| 2026-04-29 12:30 | 42.15081 | 19.49946 | 21481 ft | 399 kts | 196° |
| 2026-04-29 12:30 | 42.12372 | 19.49212 | 20963 ft | 396 kts | 196° |
| 2026-04-29 12:30 | 42.09662 | 19.48478 | 20449 ft | 393 kts | 196° |
| 2026-04-29 12:31 | 42.07021 | 19.47763 | 19943 ft | 390 kts | 196° |
| 2026-04-29 12:31 | 42.04373 | 19.47046 | 19306 ft | 391 kts | 196° |
| 2026-04-29 12:31 | 42.01690 | 19.46317 | 18384 ft | 400 kts | 196° |
| 2026-04-29 12:31 | 41.98911 | 19.45596 | 17366 ft | 411 kts | 192° |
| 2026-04-29 12:32 | 41.96036 | 19.45641 | 16208 ft | 428 kts | 174° |
| 2026-04-29 12:32 | 41.93075 | 19.46352 | 15278 ft | 431 kts | 172° |
| 2026-04-29 12:32 | 41.90203 | 19.47079 | 14374 ft | 420 kts | 172° |
| 2026-04-29 12:32 | 41.87369 | 19.47788 | 13045 ft | 415 kts | 172° |
| 2026-04-29 12:33 | 41.84581 | 19.48471 | 11713 ft | 407 kts | 171° |
| 2026-04-29 12:33 | 41.81862 | 19.49128 | 10441 ft | 398 kts | 171° |
| 2026-04-29 12:33 | 41.79188 | 19.49768 | 9158 ft | 389 kts | 171° |
| 2026-04-29 12:33 | 41.76577 | 19.50391 | 8009 ft | 379 kts | 171° |
| 2026-04-29 12:34 | 41.73970 | 19.51011 | 7622 ft | 379 kts | 171° |
| 2026-04-29 12:34 | 41.71388 | 19.51625 | 7251 ft | 377 kts | 171° |
| 2026-04-29 12:34 | 41.68803 | 19.52237 | 6825 ft | 369 kts | 171° |
| 2026-04-29 12:34 | 41.66349 | 19.52818 | 6435 ft | 346 kts | 171° |
| 2026-04-29 12:35 | 41.64140 | 19.53706 | 5964 ft | 326 kts | 151° |
| 2026-04-29 12:35 | 41.62567 | 19.55697 | 5564 ft | 306 kts | 120° |
| 2026-04-29 12:35 | 41.62025 | 19.58288 | 5318 ft | 285 kts | 88° |
| 2026-04-29 12:35 | 41.62569 | 19.60703 | 5074 ft | 265 kts | 57° |
| 2026-04-29 12:36 | 41.63570 | 19.62696 | 4814 ft | 253 kts | 62° |
| 2026-04-29 12:36 | 41.64224 | 19.64782 | 4526 ft | 235 kts | 77° |
| 2026-04-29 12:36 | 41.64217 | 19.66844 | 4202 ft | 217 kts | 112° |
| 2026-04-29 12:36 | 41.63373 | 19.68435 | 3934 ft | 208 kts | 147° |
| 2026-04-29 12:37 | 41.62129 | 19.69194 | 3778 ft | 192 kts | 167° |
| 2026-04-29 12:37 | 41.60856 | 19.69508 | 3539 ft | 180 kts | 175° |
| 2026-04-29 12:37 | 41.59659 | 19.69676 | 3345 ft | 164 kts | 177° |
| 2026-04-29 12:37 | 41.58573 | 19.69806 | 3116 ft | 151 kts | 177° |
| 2026-04-29 12:38 | 41.57560 | 19.69928 | 2913 ft | 144 kts | 177° |
| 2026-04-29 12:38 | 41.56564 | 19.70053 | 2731 ft | 143 kts | 176° |
| 2026-04-29 12:38 | 41.55584 | 19.70180 | 2553 ft | 142 kts | 176° |
| 2026-04-29 12:38 | 41.54594 | 19.70311 | 2370 ft | 142 kts | 177° |
| 2026-04-29 12:39 | 41.53605 | 19.70443 | 2185 ft | 141 kts | 177° |
| 2026-04-29 12:39 | 41.52631 | 19.70574 | 2002 ft | 141 kts | 177° |
| 2026-04-29 12:39 | 41.51649 | 19.70707 | 1818 ft | 141 kts | 177° |
| 2026-04-29 12:39 | 41.50682 | 19.70835 | 1632 ft | 141 kts | 178° |
| 2026-04-29 12:40 | 41.49702 | 19.70973 | 1447 ft | 141 kts | 174° |
| 2026-04-29 12:40 | 41.48742 | 19.71123 | 1271 ft | 140 kts | 175° |
| 2026-04-29 12:40 | 41.47762 | 19.71248 | 1124 ft | 140 kts | 175° |
| 2026-04-29 12:40 | 41.46799 | 19.71365 | 1004 ft | 140 kts | 175° |
| 2026-04-29 12:41 | 41.45824 | 19.71503 | 792 ft | 140 kts | 174° |
| 2026-04-29 12:41 | 41.44860 | 19.71649 | 567 ft | 141 kts | 174° |
| 2026-04-29 12:41 | 41.43885 | 19.71761 | 361 ft | 140 kts | 177° |
| 2026-04-29 12:41 | 41.42924 | 19.71872 | 203 ft | 138 kts | 178° |
| 2026-04-29 12:42 | 41.41996 | 19.71988 | 125 ft | 123 kts | 175° |
| 2026-04-29 12:42 | 41.41422 | 19.72065 | 129 ft | 58 kts | 175° |
| 2026-04-29 12:42 | 41.41038 | 19.72111 | 133 ft | 52 kts | 179° |
| 2026-04-29 12:42 | 41.40755 | 19.72143 | 135 ft | 26 kts | 167° |
| 2026-04-29 12:43 | 41.40680 | 19.72099 | 135 ft | 6 kts | 251° |
| 2026-04-29 12:43 | 41.40668 | 19.72031 | 135 ft | 8 kts | 257° |
| 2026-04-29 12:43 | 41.40654 | 19.71948 | 134 ft | 10 kts | 258° |
| 2026-04-29 12:43 | 41.40638 | 19.71830 | 132 ft | 14 kts | 276° |
| 2026-04-29 12:44 | 41.40728 | 19.71794 | 131 ft | 23 kts | 12° |
| 2026-04-29 12:44 | 41.40820 | 19.71742 | 131 ft | 15 kts | 343° |
| 2026-04-29 12:44 | 41.40962 | 19.71707 | 131 ft | 24 kts | 356° |
| 2026-04-29 12:44 | 41.41128 | 19.71688 | 131 ft | 23 kts | 352° |
| 2026-04-29 12:45 | 41.41294 | 19.71665 | 129 ft | 24 kts | 354° |
| 2026-04-29 12:45 | 41.41460 | 19.71647 | 128 ft | 23 kts | 356° |
| 2026-04-29 12:45 | 41.41612 | 19.71625 | 125 ft | 17 kts | 353° |
| 2026-04-29 12:45 | 41.41705 | 19.71612 | 124 ft | 11 kts | 354° |
| 2026-04-29 12:46 | 41.41785 | 19.71600 | 124 ft | 7 kts | 353° |
| 2026-04-29 12:46 | 41.41795 | 19.71576 | 124 ft | 4 kts | 272° |
| 2026-04-29 12:46 | 41.41795 | 19.71529 | 124 ft | 5 kts | 264° |
| 2026-04-29 12:46 | 41.41793 | 19.71519 | 124 ft | 0 kts | 262° |
| 2026-04-29 13:10 | 41.41795 | 19.71532 | 124 ft | 2 kts | 262° |
| 2026-04-29 13:10 | 41.41797 | 19.71552 | 124 ft | 2 kts | 262° |
| 2026-04-29 13:10 | 41.41799 | 19.71572 | 124 ft | 2 kts | 262° |
| 2026-04-29 13:10 | 41.41797 | 19.71591 | 124 ft | 2 kts | 306° |
| 2026-04-29 13:11 | 41.41785 | 19.71604 | 124 ft | 2 kts | 341° |
| 2026-04-29 13:11 | 41.41778 | 19.71606 | 124 ft | 1 kts | 1° |
| 2026-04-29 13:11 | 41.41772 | 19.71606 | 124 ft | 0 kts | 355° |
| 2026-04-29 13:17 | 41.41779 | 19.71606 | 124 ft | 6 kts | 355° |
| 2026-04-29 13:17 | 41.41882 | 19.71590 | 123 ft | 23 kts | 354° |
| 2026-04-29 13:17 | 41.42071 | 19.71562 | 120 ft | 27 kts | 353° |
| 2026-04-29 13:17 | 41.42257 | 19.71535 | 119 ft | 26 kts | 354° |
| 2026-04-29 13:18 | 41.42440 | 19.71515 | 117 ft | 26 kts | 358° |
| 2026-04-29 13:18 | 41.42602 | 19.71501 | 117 ft | 15 kts | 354° |
| 2026-04-29 13:18 | 41.42671 | 19.71576 | 117 ft | 15 kts | 85° |
| 2026-04-29 13:18 | 41.42677 | 19.71718 | 117 ft | 15 kts | 88° |
| 2026-04-29 13:19 | 41.42675 | 19.71866 | 118 ft | 15 kts | 101° |
| 2026-04-29 13:19 | 41.42603 | 19.71907 | 119 ft | 16 kts | 173° |
| 2026-04-29 13:19 | 41.42314 | 19.71944 | 121 ft | 72 kts | 174° |
| 2026-04-29 13:19 | 41.41609 | 19.72039 | 128 ft | 129 kts | 175° |
| 2026-04-29 13:20 | 41.40548 | 19.72186 | 173 ft | 171 kts | 176° |
| 2026-04-29 13:20 | 41.39359 | 19.72294 | 689 ft | 170 kts | 178° |
| 2026-04-29 13:20 | 41.38167 | 19.72444 | 1252 ft | 173 kts | 176° |
| 2026-04-29 13:20 | 41.36987 | 19.72623 | 1807 ft | 175 kts | 176° |
| 2026-04-29 13:21 | 41.35743 | 19.72804 | 2200 ft | 187 kts | 176° |
| 2026-04-29 13:21 | 41.34397 | 19.72988 | 2480 ft | 201 kts | 176° |
| 2026-04-29 13:21 | 41.32932 | 19.73185 | 2711 ft | 221 kts | 176° |
| 2026-04-29 13:21 | 41.31361 | 19.73398 | 3136 ft | 233 kts | 176° |
| 2026-04-29 13:22 | 41.29693 | 19.73617 | 3525 ft | 248 kts | 176° |
| 2026-04-29 13:22 | 41.27906 | 19.73849 | 3912 ft | 264 kts | 175° |
| 2026-04-29 13:22 | 41.26070 | 19.73962 | 4529 ft | 269 kts | 189° |
| 2026-04-29 13:22 | 41.24394 | 19.72986 | 5234 ft | 268 kts | 224° |
| 2026-04-29 13:23 | 41.23431 | 19.70901 | 5958 ft | 270 kts | 258° |
| 2026-04-29 13:23 | 41.23531 | 19.68441 | 6620 ft | 274 kts | 292° |
| 2026-04-29 13:23 | 41.24675 | 19.66452 | 7310 ft | 278 kts | 326° |
| 2026-04-29 13:23 | 41.26466 | 19.65628 | 8001 ft | 282 kts | 358° |
| 2026-04-29 13:24 | 41.28405 | 19.65868 | 8737 ft | 284 kts | 9° |
| 2026-04-29 13:24 | 41.30384 | 19.66303 | 9420 ft | 286 kts | 8° |
| 2026-04-29 13:24 | 41.32352 | 19.66658 | 10097 ft | 288 kts | 6° |
| 2026-04-29 13:24 | 41.34342 | 19.66927 | 10618 ft | 295 kts | 4° |
| 2026-04-29 13:25 | 41.36414 | 19.67140 | 11070 ft | 304 kts | 3° |
| 2026-04-29 13:25 | 41.40787 | 19.67478 | 11966 ft | 321 kts | 1° |
| 2026-04-29 13:25 | 41.43014 | 19.67610 | 12579 ft | 322 kts | 1° |
| 2026-04-29 13:26 | 41.45271 | 19.67745 | 13168 ft | 324 kts | 1° |
| 2026-04-29 13:26 | 41.47533 | 19.67883 | 13748 ft | 326 kts | 1° |
| 2026-04-29 13:26 | 41.49785 | 19.68022 | 14307 ft | 328 kts | 0° |
| 2026-04-29 13:26 | 41.52089 | 19.68164 | 14858 ft | 331 kts | 0° |
| 2026-04-29 13:27 | 41.54382 | 19.68307 | 15390 ft | 333 kts | 0° |
| 2026-04-29 13:27 | 41.56697 | 19.68451 | 15917 ft | 335 kts | 0° |
| 2026-04-29 13:27 | 41.59059 | 19.68599 | 16451 ft | 338 kts | 360° |
| 2026-04-29 13:27 | 41.61396 | 19.68746 | 16967 ft | 340 kts | 360° |
| 2026-04-29 13:28 | 41.63791 | 19.68963 | 17387 ft | 345 kts | 2° |
| 2026-04-29 13:28 | 41.66175 | 19.69395 | 17832 ft | 350 kts | 6° |
| 2026-04-29 13:28 | 41.68587 | 19.70039 | 18327 ft | 353 kts | 8° |
| 2026-04-29 13:28 | 41.70982 | 19.70741 | 18776 ft | 356 kts | 8° |
| 2026-04-29 13:29 | 41.73408 | 19.71460 | 19245 ft | 359 kts | 8° |
| 2026-04-29 13:29 | 41.75845 | 19.72183 | 19670 ft | 361 kts | 8° |
| 2026-04-29 13:29 | 41.78313 | 19.72914 | 20098 ft | 364 kts | 8° |
| 2026-04-29 13:29 | 41.80794 | 19.73646 | 20542 ft | 366 kts | 8° |
| 2026-04-29 13:30 | 41.83290 | 19.74383 | 20965 ft | 368 kts | 8° |
| 2026-04-29 13:30 | 41.85770 | 19.75116 | 21386 ft | 370 kts | 8° |
| 2026-04-29 13:30 | 41.88296 | 19.75862 | 21781 ft | 372 kts | 8° |
| 2026-04-29 13:30 | 41.90845 | 19.76617 | 22175 ft | 374 kts | 8° |
| 2026-04-29 13:31 | 41.93399 | 19.77374 | 22560 ft | 376 kts | 8° |
| 2026-04-29 13:31 | 41.95957 | 19.78131 | 22938 ft | 378 kts | 7° |
| 2026-04-29 13:31 | 41.98550 | 19.78779 | 23313 ft | 378 kts | 4° |
| 2026-04-29 13:31 | 42.01142 | 19.79209 | 23678 ft | 379 kts | 1° |
| 2026-04-29 13:32 | 42.03769 | 19.79548 | 24037 ft | 381 kts | 1° |
| 2026-04-29 13:32 | 42.06399 | 19.79869 | 24395 ft | 382 kts | 1° |
| 2026-04-29 13:32 | 42.09073 | 19.80195 | 24744 ft | 384 kts | 1° |
| 2026-04-29 13:32 | 42.11747 | 19.80525 | 25077 ft | 386 kts | 1° |
| 2026-04-29 13:33 | 42.14391 | 19.80852 | 25401 ft | 388 kts | 1° |
| 2026-04-29 13:33 | 42.17116 | 19.81193 | 25733 ft | 390 kts | 1° |
| 2026-04-29 13:33 | 42.19811 | 19.81530 | 26057 ft | 392 kts | 1° |
| 2026-04-29 13:33 | 42.22528 | 19.81870 | 26367 ft | 393 kts | 1° |
| 2026-04-29 13:34 | 42.25238 | 19.82210 | 26678 ft | 395 kts | 1° |
| 2026-04-29 13:34 | 42.28001 | 19.82557 | 26984 ft | 397 kts | 1° |
| 2026-04-29 13:34 | 42.30727 | 19.82900 | 27278 ft | 399 kts | 1° |
| 2026-04-29 13:34 | 42.33491 | 19.83248 | 27581 ft | 400 kts | 1° |
| 2026-04-29 13:35 | 42.36295 | 19.83601 | 27881 ft | 401 kts | 1° |
| 2026-04-29 13:35 | 42.39084 | 19.83951 | 28157 ft | 403 kts | 1° |
| 2026-04-29 13:35 | 42.41849 | 19.84300 | 28419 ft | 405 kts | 1° |
| 2026-04-29 13:35 | 42.44662 | 19.84654 | 28679 ft | 407 kts | 1° |
| 2026-04-29 13:36 | 42.47488 | 19.84975 | 28946 ft | 407 kts | 359° |
| 2026-04-29 13:36 | 42.50304 | 19.85112 | 29212 ft | 407 kts | 356° |
| 2026-04-29 13:36 | 42.53151 | 19.85162 | 29459 ft | 408 kts | 356° |
| 2026-04-29 13:36 | 42.55995 | 19.85197 | 29705 ft | 410 kts | 356° |
| 2026-04-29 13:37 | 42.58823 | 19.85228 | 29925 ft | 412 kts | 356° |
| 2026-04-29 13:37 | 42.61700 | 19.85261 | 30164 ft | 413 kts | 355° |
| 2026-04-29 13:37 | 42.64593 | 19.85296 | 30400 ft | 414 kts | 355° |
| 2026-04-29 13:37 | 42.67459 | 19.85330 | 30630 ft | 416 kts | 355° |
| 2026-04-29 13:38 | 42.70352 | 19.85366 | 30874 ft | 417 kts | 355° |
| 2026-04-29 13:38 | 42.73262 | 19.85400 | 31103 ft | 418 kts | 355° |
| 2026-04-29 13:38 | 42.76176 | 19.85433 | 31319 ft | 419 kts | 355° |
| 2026-04-29 13:38 | 42.79104 | 19.85469 | 31540 ft | 420 kts | 355° |
| 2026-04-29 13:39 | 42.82011 | 19.85505 | 31805 ft | 420 kts | 355° |
| 2026-04-29 13:39 | 42.84937 | 19.85543 | 32097 ft | 419 kts | 355° |
| 2026-04-29 13:39 | 42.87845 | 19.85581 | 32410 ft | 417 kts | 354° |
| 2026-04-29 13:39 | 42.90736 | 19.85619 | 32677 ft | 416 kts | 355° |
| 2026-04-29 13:40 | 42.93617 | 19.85658 | 32950 ft | 415 kts | 354° |
| 2026-04-29 13:40 | 42.96499 | 19.85696 | 33196 ft | 415 kts | 354° |
| 2026-04-29 13:40 | 42.99401 | 19.85735 | 33440 ft | 415 kts | 354° |
| 2026-04-29 13:40 | 43.02244 | 19.85774 | 33695 ft | 414 kts | 354° |
| 2026-04-29 13:41 | 43.05136 | 19.85812 | 33969 ft | 412 kts | 354° |
| 2026-04-29 13:41 | 43.07972 | 19.85850 | 34218 ft | 411 kts | 354° |
| 2026-04-29 13:41 | 43.10825 | 19.85888 | 34446 ft | 411 kts | 354° |
| 2026-04-29 13:41 | 43.13658 | 19.85924 | 34673 ft | 410 kts | 354° |
| 2026-04-29 13:42 | 43.16544 | 19.85961 | 34892 ft | 409 kts | 354° |
| 2026-04-29 13:42 | 43.19382 | 19.85998 | 35097 ft | 407 kts | 354° |
| 2026-04-29 13:42 | 43.22168 | 19.86034 | 35293 ft | 406 kts | 354° |
| 2026-04-29 13:42 | 43.24999 | 19.86071 | 35467 ft | 406 kts | 354° |
| 2026-04-29 13:43 | 43.27822 | 19.86108 | 35622 ft | 406 kts | 354° |
| 2026-04-29 13:43 | 43.30633 | 19.86144 | 35777 ft | 406 kts | 353° |
| 2026-04-29 13:43 | 43.33459 | 19.86182 | 35948 ft | 405 kts | 353° |
| 2026-04-29 13:43 | 43.36255 | 19.86219 | 36112 ft | 404 kts | 353° |
| 2026-04-29 13:44 | 43.39068 | 19.86256 | 36247 ft | 405 kts | 353° |
| 2026-04-29 13:44 | 43.41878 | 19.86293 | 36366 ft | 405 kts | 353° |
| 2026-04-29 13:44 | 43.44702 | 19.86330 | 36494 ft | 405 kts | 353° |
| 2026-04-29 13:44 | 43.47502 | 19.86367 | 36628 ft | 405 kts | 353° |
| 2026-04-29 13:45 | 43.50329 | 19.86404 | 36778 ft | 405 kts | 354° |
| 2026-04-29 13:45 | 43.53106 | 19.86441 | 36915 ft | 405 kts | 354° |
| 2026-04-29 13:45 | 43.55951 | 19.86479 | 37024 ft | 406 kts | 353° |
| 2026-04-29 13:45 | 43.58746 | 19.86517 | 37136 ft | 406 kts | 354° |
| 2026-04-29 13:46 | 43.61575 | 19.86556 | 37253 ft | 407 kts | 353° |
| 2026-04-29 13:46 | 43.64402 | 19.86594 | 37365 ft | 407 kts | 353° |
| 2026-04-29 13:46 | 43.70060 | 19.86669 | 37564 ft | 408 kts | 353° |
| 2026-04-29 13:47 | 43.72896 | 19.86708 | 37684 ft | 408 kts | 353° |
| 2026-04-29 13:47 | 43.75720 | 19.86745 | 37790 ft | 408 kts | 353° |
| 2026-04-29 13:47 | 43.81384 | 19.86822 | 37964 ft | 409 kts | 353° |
| 2026-04-29 13:48 | 43.87062 | 19.86898 | 38095 ft | 409 kts | 353° |
| 2026-04-29 13:48 | 43.92751 | 19.86976 | 38102 ft | 410 kts | 353° |
| 2026-04-29 13:49 | 43.98445 | 19.87052 | 38100 ft | 410 kts | 353° |
| 2026-04-29 13:49 | 44.04132 | 19.87130 | 38099 ft | 411 kts | 353° |
| 2026-04-29 13:50 | 44.09851 | 19.87208 | 38102 ft | 410 kts | 353° |
| 2026-04-29 13:50 | 44.15545 | 19.87285 | 38104 ft | 409 kts | 353° |
| 2026-04-29 13:51 | 44.21207 | 19.87361 | 38103 ft | 409 kts | 353° |
| 2026-04-29 13:51 | 44.26899 | 19.87439 | 38116 ft | 410 kts | 353° |
| 2026-04-29 13:52 | 44.32580 | 19.87592 | 38112 ft | 412 kts | 356° |
| 2026-04-29 13:52 | 44.38303 | 19.88203 | 38109 ft | 414 kts | 357° |
| 2026-04-29 13:53 | 44.44049 | 19.88878 | 38113 ft | 414 kts | 357° |
| 2026-04-29 13:53 | 44.49771 | 19.89544 | 38111 ft | 414 kts | 357° |
| 2026-04-29 13:54 | 44.55470 | 19.90207 | 38123 ft | 413 kts | 357° |
| 2026-04-29 13:54 | 44.61214 | 19.90875 | 38120 ft | 414 kts | 357° |
| 2026-04-29 13:55 | 44.66909 | 19.91539 | 38128 ft | 414 kts | 357° |
| 2026-04-29 13:55 | 44.72659 | 19.92208 | 38145 ft | 414 kts | 357° |
| 2026-04-29 13:56 | 44.78386 | 19.92878 | 38134 ft | 414 kts | 357° |
| 2026-04-29 13:56 | 44.84082 | 19.93545 | 38134 ft | 414 kts | 357° |
| 2026-04-29 13:57 | 44.89816 | 19.94219 | 38144 ft | 413 kts | 357° |
| 2026-04-29 13:57 | 44.95520 | 19.94891 | 38143 ft | 413 kts | 357° |
| 2026-04-29 13:58 | 45.01226 | 19.95561 | 38157 ft | 414 kts | 357° |
| 2026-04-29 13:58 | 45.06981 | 19.96239 | 38127 ft | 415 kts | 357° |
| 2026-04-29 13:59 | 45.12689 | 19.96913 | 38121 ft | 414 kts | 357° |
| 2026-04-29 13:59 | 45.18402 | 19.97590 | 38139 ft | 414 kts | 357° |
| 2026-04-29 14:00 | 45.24171 | 19.98276 | 38128 ft | 415 kts | 357° |
| 2026-04-29 14:00 | 45.29899 | 19.98958 | 38124 ft | 415 kts | 357° |
| 2026-04-29 14:01 | 45.35655 | 19.99644 | 38134 ft | 416 kts | 357° |
| 2026-04-29 14:01 | 45.41404 | 20.00330 | 38115 ft | 416 kts | 357° |
| 2026-04-29 14:02 | 45.47175 | 20.01022 | 38140 ft | 416 kts | 357° |
| 2026-04-29 14:02 | 45.52936 | 20.01713 | 38116 ft | 417 kts | 357° |
| 2026-04-29 14:03 | 45.58712 | 20.02407 | 38153 ft | 418 kts | 358° |
| 2026-04-29 14:03 | 45.64507 | 20.03106 | 38134 ft | 418 kts | 357° |
| 2026-04-29 14:04 | 45.70262 | 20.03799 | 38140 ft | 418 kts | 358° |
| 2026-04-29 14:04 | 45.76045 | 20.04500 | 38121 ft | 419 kts | 358° |
| 2026-04-29 14:05 | 45.81820 | 20.05201 | 38136 ft | 418 kts | 358° |
| 2026-04-29 14:05 | 45.87627 | 20.05906 | 38130 ft | 420 kts | 358° |
| 2026-04-29 14:06 | 45.93411 | 20.06610 | 38153 ft | 419 kts | 358° |
| 2026-04-29 14:06 | 45.99205 | 20.07316 | 38133 ft | 420 kts | 358° |
| 2026-04-29 14:07 | 46.05033 | 20.08027 | 38154 ft | 421 kts | 358° |
| 2026-04-29 14:07 | 46.10854 | 20.08489 | 38158 ft | 416 kts | 353° |
| 2026-04-29 14:08 | 46.16540 | 20.07853 | 38157 ft | 409 kts | 345° |
| 2026-04-29 14:08 | 46.22036 | 20.06100 | 38145 ft | 403 kts | 338° |
| 2026-04-29 14:09 | 46.27284 | 20.03411 | 38150 ft | 401 kts | 334° |
| 2026-04-29 14:09 | 46.32487 | 20.00622 | 38154 ft | 402 kts | 337° |
| 2026-04-29 14:10 | 46.37908 | 19.98514 | 38157 ft | 405 kts | 342° |
| 2026-04-29 14:10 | 46.43438 | 19.97180 | 38151 ft | 408 kts | 346° |
| 2026-04-29 14:11 | 46.49056 | 19.96047 | 38148 ft | 409 kts | 346° |
| 2026-04-29 14:11 | 46.54697 | 19.94915 | 38159 ft | 408 kts | 346° |
| 2026-04-29 14:12 | 46.60312 | 19.93785 | 38151 ft | 408 kts | 346° |
| 2026-04-29 14:12 | 46.65895 | 19.92658 | 38155 ft | 408 kts | 346° |
| 2026-04-29 14:13 | 46.71537 | 19.91515 | 38161 ft | 409 kts | 346° |
| 2026-04-29 14:13 | 46.77141 | 19.90377 | 38163 ft | 407 kts | 346° |
| 2026-04-29 14:14 | 46.82729 | 19.89240 | 38164 ft | 408 kts | 346° |
| 2026-04-29 14:14 | 46.88358 | 19.88090 | 38177 ft | 407 kts | 346° |
| 2026-04-29 14:15 | 46.93934 | 19.86950 | 38170 ft | 407 kts | 347° |
| 2026-04-29 14:15 | 46.99543 | 19.85801 | 38171 ft | 408 kts | 347° |
| 2026-04-29 14:16 | 47.05110 | 19.84659 | 38176 ft | 407 kts | 347° |
| 2026-04-29 14:16 | 47.10701 | 19.83511 | 38160 ft | 407 kts | 347° |
| 2026-04-29 14:17 | 47.16307 | 19.82355 | 38168 ft | 407 kts | 347° |
| 2026-04-29 14:17 | 47.21931 | 19.81194 | 38157 ft | 408 kts | 347° |
| 2026-04-29 14:18 | 47.27519 | 19.80036 | 38169 ft | 407 kts | 347° |
| 2026-04-29 14:18 | 47.33146 | 19.78870 | 38155 ft | 408 kts | 347° |
| 2026-04-29 14:19 | 47.38739 | 19.77706 | 38160 ft | 409 kts | 347° |
| 2026-04-29 14:19 | 47.44377 | 19.76531 | 38150 ft | 410 kts | 347° |
| 2026-04-29 14:20 | 47.50011 | 19.75356 | 38162 ft | 410 kts | 347° |
| 2026-04-29 14:20 | 47.55628 | 19.74179 | 38168 ft | 410 kts | 347° |
| 2026-04-29 14:21 | 47.61269 | 19.72995 | 38152 ft | 410 kts | 347° |
| 2026-04-29 14:21 | 47.66900 | 19.71815 | 38156 ft | 411 kts | 347° |
| 2026-04-29 14:22 | 47.72554 | 19.70623 | 38144 ft | 411 kts | 347° |
| 2026-04-29 14:22 | 47.78214 | 19.69429 | 38160 ft | 412 kts | 347° |
| 2026-04-29 14:23 | 47.83878 | 19.68233 | 38146 ft | 411 kts | 347° |
| 2026-04-29 14:23 | 47.89507 | 19.67036 | 38143 ft | 412 kts | 347° |
| 2026-04-29 14:24 | 47.95162 | 19.65832 | 38145 ft | 413 kts | 348° |
| 2026-04-29 14:24 | 48.00838 | 19.64624 | 38147 ft | 413 kts | 348° |
| 2026-04-29 14:25 | 48.06536 | 19.63410 | 38154 ft | 414 kts | 348° |
| 2026-04-29 14:25 | 48.12215 | 19.62193 | 38147 ft | 413 kts | 348° |
| 2026-04-29 14:26 | 48.17894 | 19.60977 | 38173 ft | 413 kts | 348° |
| 2026-04-29 14:26 | 48.23595 | 19.60119 | 38155 ft | 416 kts | 353° |
| 2026-04-29 14:27 | 48.29395 | 19.60100 | 38169 ft | 418 kts | 357° |
| 2026-04-29 14:28 | 48.38109 | 19.60461 | 38158 ft | 418 kts | 358° |
| 2026-04-29 14:28 | 48.43900 | 19.60701 | 38166 ft | 418 kts | 357° |
| 2026-04-29 14:29 | 48.49709 | 19.60935 | 38175 ft | 418 kts | 357° |
| 2026-04-29 14:29 | 48.55533 | 19.61170 | 38165 ft | 418 kts | 357° |
| 2026-04-29 14:30 | 48.61298 | 19.61405 | 38149 ft | 418 kts | 358° |
| 2026-04-29 14:30 | 48.67134 | 19.61644 | 38162 ft | 417 kts | 358° |
| 2026-04-29 14:31 | 48.72916 | 19.61878 | 38154 ft | 417 kts | 358° |
| 2026-04-29 14:31 | 48.78705 | 19.62114 | 38170 ft | 418 kts | 358° |
| 2026-04-29 14:32 | 48.84504 | 19.62354 | 38170 ft | 418 kts | 358° |
| 2026-04-29 14:32 | 48.90311 | 19.62589 | 38167 ft | 419 kts | 358° |
| 2026-04-29 14:33 | 48.96144 | 19.62834 | 38170 ft | 418 kts | 358° |
| 2026-04-29 14:33 | 49.01896 | 19.63067 | 38156 ft | 417 kts | 358° |
| 2026-04-29 14:34 | 49.07722 | 19.63307 | 38162 ft | 417 kts | 358° |
| 2026-04-29 14:34 | 49.13533 | 19.63548 | 38161 ft | 419 kts | 358° |
| 2026-04-29 14:35 | 49.19324 | 19.63788 | 38153 ft | 418 kts | 359° |
| 2026-04-29 14:35 | 49.25141 | 19.64022 | 38164 ft | 419 kts | 358° |
| 2026-04-29 14:36 | 49.30944 | 19.64207 | 38156 ft | 419 kts | 358° |
| 2026-04-29 14:36 | 49.36727 | 19.63715 | 38074 ft | 413 kts | 346° |
| 2026-04-29 14:36 | 49.39496 | 19.62583 | 37496 ft | 414 kts | 339° |
| 2026-04-29 14:37 | 49.42136 | 19.60872 | 36602 ft | 419 kts | 331° |
| 2026-04-29 14:37 | 49.44638 | 19.58635 | 35813 ft | 420 kts | 327° |
| 2026-04-29 14:37 | 49.47097 | 19.56245 | 35189 ft | 418 kts | 326° |
| 2026-04-29 14:37 | 49.49521 | 19.53865 | 34601 ft | 415 kts | 326° |
| 2026-04-29 14:38 | 49.51962 | 19.51463 | 33978 ft | 413 kts | 326° |
| 2026-04-29 14:38 | 49.54362 | 19.49104 | 33372 ft | 412 kts | 326° |
| 2026-04-29 14:38 | 49.56759 | 19.46751 | 32748 ft | 412 kts | 326° |
| 2026-04-29 14:38 | 49.59169 | 19.44388 | 32170 ft | 410 kts | 326° |
| 2026-04-29 14:39 | 49.61541 | 19.42058 | 31650 ft | 407 kts | 325° |
| 2026-04-29 14:39 | 49.63919 | 19.39717 | 31222 ft | 401 kts | 325° |
| 2026-04-29 14:39 | 49.66232 | 19.37437 | 30803 ft | 396 kts | 324° |
| 2026-04-29 14:39 | 49.68518 | 19.35181 | 30333 ft | 391 kts | 324° |
| 2026-04-29 14:40 | 49.70814 | 19.32909 | 29774 ft | 387 kts | 323° |
| 2026-04-29 14:40 | 49.73062 | 19.30681 | 29207 ft | 384 kts | 324° |
| 2026-04-29 14:40 | 49.75288 | 19.28472 | 28637 ft | 381 kts | 324° |
| 2026-04-29 14:40 | 49.77497 | 19.26284 | 28109 ft | 377 kts | 324° |
| 2026-04-29 14:41 | 49.79678 | 19.24119 | 27592 ft | 373 kts | 324° |
| 2026-04-29 14:41 | 49.81849 | 19.21964 | 27052 ft | 369 kts | 324° |
| 2026-04-29 14:41 | 49.83984 | 19.19841 | 26514 ft | 366 kts | 324° |
| 2026-04-29 14:41 | 49.86132 | 19.17702 | 25983 ft | 362 kts | 324° |
| 2026-04-29 14:42 | 49.88231 | 19.15612 | 25473 ft | 358 kts | 323° |
| 2026-04-29 14:42 | 49.90315 | 19.13533 | 24965 ft | 353 kts | 324° |
| 2026-04-29 14:42 | 49.92358 | 19.11493 | 24455 ft | 349 kts | 323° |
| 2026-04-29 14:42 | 49.94385 | 19.09467 | 23884 ft | 346 kts | 324° |
| 2026-04-29 14:43 | 49.96389 | 19.07457 | 23331 ft | 343 kts | 324° |
| 2026-04-29 14:43 | 49.98373 | 19.05469 | 22786 ft | 339 kts | 324° |
| 2026-04-29 14:43 | 50.00353 | 19.03483 | 22234 ft | 336 kts | 324° |
| 2026-04-29 14:43 | 50.02289 | 19.01539 | 21683 ft | 333 kts | 324° |
| 2026-04-29 14:44 | 50.04224 | 18.99595 | 21145 ft | 330 kts | 325° |
| 2026-04-29 14:44 | 50.06143 | 18.97664 | 20599 ft | 327 kts | 325° |
| 2026-04-29 14:44 | 50.08056 | 18.95735 | 20073 ft | 325 kts | 325° |
| 2026-04-29 14:44 | 50.09929 | 18.93846 | 19544 ft | 323 kts | 326° |
| 2026-04-29 14:45 | 50.11799 | 18.91956 | 19030 ft | 321 kts | 327° |
| 2026-04-29 14:45 | 50.13660 | 18.90077 | 18519 ft | 319 kts | 327° |
| 2026-04-29 14:45 | 50.15533 | 18.88185 | 17974 ft | 318 kts | 327° |
| 2026-04-29 14:45 | 50.17390 | 18.86312 | 17388 ft | 318 kts | 327° |
| 2026-04-29 14:46 | 50.19244 | 18.84439 | 16850 ft | 317 kts | 327° |
| 2026-04-29 14:46 | 50.21057 | 18.82601 | 16526 ft | 311 kts | 328° |
| 2026-04-29 14:46 | 50.22851 | 18.80777 | 16204 ft | 305 kts | 328° |
| 2026-04-29 14:46 | 50.24607 | 18.78995 | 15848 ft | 300 kts | 328° |
| 2026-04-29 14:47 | 50.26341 | 18.77236 | 15507 ft | 296 kts | 329° |
| 2026-04-29 14:47 | 50.28073 | 18.75474 | 15167 ft | 291 kts | 329° |
| 2026-04-29 14:47 | 50.29753 | 18.73767 | 14851 ft | 287 kts | 329° |
| 2026-04-29 14:47 | 50.31411 | 18.72076 | 14543 ft | 282 kts | 329° |
| 2026-04-29 14:48 | 50.33030 | 18.70423 | 14238 ft | 278 kts | 329° |
| 2026-04-29 14:48 | 50.34637 | 18.68784 | 13946 ft | 274 kts | 329° |
| 2026-04-29 14:48 | 50.36214 | 18.67173 | 13679 ft | 269 kts | 329° |
| 2026-04-29 14:48 | 50.37780 | 18.65580 | 13356 ft | 262 kts | 332° |
| 2026-04-29 14:49 | 50.39428 | 18.64551 | 12876 ft | 252 kts | 353° |
| 2026-04-29 14:49 | 50.41132 | 18.64442 | 12377 ft | 245 kts | 1° |
| 2026-04-29 14:49 | 50.42829 | 18.64444 | 11807 ft | 243 kts | 1° |
| 2026-04-29 14:49 | 50.44511 | 18.64443 | 11205 ft | 241 kts | 1° |
| 2026-04-29 14:50 | 50.46152 | 18.64756 | 10560 ft | 241 kts | 24° |
| 2026-04-29 14:50 | 50.47378 | 18.66440 | 9923 ft | 243 kts | 61° |
| 2026-04-29 14:50 | 50.47728 | 18.68952 | 9481 ft | 239 kts | 88° |
| 2026-04-29 14:50 | 50.47664 | 18.71539 | 8858 ft | 229 kts | 87° |
| 2026-04-29 14:51 | 50.47638 | 18.73980 | 8243 ft | 222 kts | 86° |
| 2026-04-29 14:51 | 50.47631 | 18.76404 | 7604 ft | 218 kts | 85° |
| 2026-04-29 14:51 | 50.47628 | 18.78709 | 7237 ft | 204 kts | 85° |
| 2026-04-29 14:51 | 50.47625 | 18.80838 | 6993 ft | 184 kts | 85° |
| 2026-04-29 14:52 | 50.47621 | 18.82732 | 6719 ft | 167 kts | 85° |
| 2026-04-29 14:52 | 50.47620 | 18.84465 | 6419 ft | 153 kts | 84° |
| 2026-04-29 14:52 | 50.47622 | 18.86111 | 6017 ft | 148 kts | 84° |
| 2026-04-29 14:52 | 50.47625 | 18.87717 | 5573 ft | 147 kts | 83° |
| 2026-04-29 14:53 | 50.47626 | 18.89297 | 5135 ft | 147 kts | 84° |
| 2026-04-29 14:53 | 50.47628 | 18.90886 | 4707 ft | 145 kts | 83° |
| 2026-04-29 14:53 | 50.47630 | 18.92446 | 4294 ft | 144 kts | 83° |
| 2026-04-29 14:53 | 50.47631 | 18.94023 | 3881 ft | 143 kts | 82° |
| 2026-04-29 14:54 | 50.47633 | 18.95575 | 3459 ft | 143 kts | 83° |
| 2026-04-29 14:54 | 50.47628 | 18.97121 | 3044 ft | 143 kts | 84° |
| 2026-04-29 14:54 | 50.47626 | 18.98655 | 2627 ft | 142 kts | 83° |
| 2026-04-29 14:54 | 50.47625 | 19.00225 | 2195 ft | 143 kts | 84° |
| 2026-04-29 14:55 | 50.47621 | 19.01748 | 1797 ft | 142 kts | 84° |
| 2026-04-29 14:55 | 50.47617 | 19.03292 | 1430 ft | 139 kts | 85° |
| 2026-04-29 14:55 | 50.47614 | 19.04777 | 1151 ft | 131 kts | 84° |
| 2026-04-29 14:55 | 50.47609 | 19.06130 | 970 ft | 116 kts | 86° |
| 2026-04-29 14:56 | 50.47620 | 19.07056 | 974 ft | 52 kts | 91° |
| 2026-04-29 14:56 | 50.47612 | 19.07373 | 978 ft | 21 kts | 96° |
| 2026-04-29 14:56 | 50.47602 | 19.07651 | 978 ft | 29 kts | 97° |
| 2026-04-29 14:56 | 50.47608 | 19.08003 | 980 ft | 35 kts | 86° |
| 2026-04-29 14:57 | 50.47612 | 19.08423 | 981 ft | 41 kts | 88° |
| 2026-04-29 14:57 | 50.47611 | 19.08920 | 984 ft | 47 kts | 89° |
| 2026-04-29 14:57 | 50.47599 | 19.09299 | 986 ft | 18 kts | 105° |
| 2026-04-29 14:57 | 50.47498 | 19.09375 | 987 ft | 17 kts | 186° |
| 2026-04-29 14:58 | 50.47388 | 19.09362 | 991 ft | 14 kts | 175° |
| 2026-04-29 14:58 | 50.47292 | 19.09368 | 995 ft | 17 kts | 183° |
| 2026-04-29 14:58 | 50.47245 | 19.09226 | 993 ft | 15 kts | 243° |
| 2026-04-29 14:58 | 50.47235 | 19.09058 | 993 ft | 19 kts | 272° |
| 2026-04-29 14:59 | 50.47234 | 19.08827 | 988 ft | 21 kts | 271° |
| 2026-04-29 14:59 | 50.47237 | 19.08584 | 985 ft | 22 kts | 271° |
| 2026-04-29 14:59 | 50.47233 | 19.08394 | 985 ft | 16 kts | 271° |
| 2026-04-29 14:59 | 50.47236 | 19.08251 | 985 ft | 5 kts | 270° |
| 2026-04-29 15:00 | 50.47206 | 19.08228 | 984 ft | 6 kts | 176° |
| 2026-04-29 15:00 | 50.47157 | 19.08229 | 985 ft | 0 kts | 181° |